createdAt,value
2019-02-08T00:02:46.822Z,6.70
2019-02-08T00:07:54.197Z,6.60
2019-02-08T00:13:00.491Z,6.50
2019-02-08T00:18:06.792Z,6.40
2019-02-08T00:23:13.106Z,6.30
2019-02-08T00:28:19.824Z,6.10
2019-02-08T00:33:26.364Z,6.00
2019-02-08T00:38:32.988Z,6.00
2019-02-08T00:43:39.399Z,5.80
2019-02-08T00:48:45.712Z,5.70
2019-02-08T00:53:52.003Z,5.60
2019-02-08T00:58:58.215Z,5.50
2019-02-08T01:04:06.270Z,5.50
2019-02-08T01:09:12.592Z,5.40
2019-02-08T01:14:18.855Z,5.40
2019-02-08T01:19:26.170Z,5.40
2019-02-08T01:24:32.459Z,5.30
2019-02-08T01:29:40.605Z,5.30
2019-02-08T01:34:46.863Z,5.30
2019-02-08T01:39:53.179Z,5.30
2019-02-08T01:44:59.504Z,5.40
2019-02-08T01:50:07.914Z,5.40
2019-02-08T01:55:14.455Z,5.50
2019-02-08T02:00:32.908Z,5.50
2019-02-08T02:05:39.250Z,5.60
2019-02-08T02:10:46.045Z,5.70
2019-02-08T02:15:52.401Z,5.80
2019-02-08T02:20:58.625Z,5.80
2019-02-08T02:26:05.455Z,5.90
2019-02-08T02:31:11.655Z,6.00
2019-02-08T02:36:17.855Z,6.10
2019-02-08T02:41:24.063Z,6.10
2019-02-08T02:46:30.423Z,6.10
2019-02-08T02:51:36.664Z,6.10
2019-02-08T02:56:43.116Z,6.00
2019-02-08T03:01:49.484Z,6.10
2019-02-08T03:06:55.756Z,6.20
2019-02-08T03:12:02.068Z,6.20
2019-02-08T03:17:08.281Z,6.30
2019-02-08T03:22:14.553Z,6.40
2019-02-08T03:27:20.815Z,6.40
2019-02-08T03:32:27.110Z,6.40
2019-02-08T03:37:33.333Z,6.50
2019-02-08T03:42:39.561Z,6.50
2019-02-08T03:47:45.778Z,6.50
2019-02-08T03:52:52.400Z,6.60
2019-02-08T03:57:58.598Z,6.60
2019-02-08T04:03:05.882Z,6.60
2019-02-08T04:08:12.133Z,6.60
2019-02-08T04:13:18.315Z,6.50
2019-02-08T04:18:24.620Z,6.50
2019-02-08T04:23:30.822Z,6.40
2019-02-08T04:28:37.112Z,6.50
2019-02-08T04:33:43.327Z,6.50
2019-02-08T04:38:49.593Z,6.50
2019-02-08T04:43:55.840Z,6.50
2019-02-08T04:49:02.071Z,6.50
2019-02-08T04:54:08.311Z,6.50
2019-02-08T04:59:14.579Z,6.50
2019-02-08T05:04:20.876Z,6.60
2019-02-08T05:09:27.462Z,6.60
2019-02-08T05:14:33.742Z,6.60
2019-02-08T05:19:40.060Z,6.50
2019-02-08T05:24:46.379Z,6.60
2019-02-08T05:29:52.702Z,6.70
2019-02-08T05:34:58.955Z,6.70
2019-02-08T05:40:07.084Z,6.70
2019-02-08T05:45:14.417Z,6.70
2019-02-08T05:50:22.685Z,6.70
2019-02-08T05:55:30.624Z,6.80
2019-02-08T06:00:58.012Z,6.80
2019-02-08T06:06:05.858Z,6.80
2019-02-08T06:11:12.161Z,6.80
2019-02-08T06:16:20.697Z,6.80
2019-02-08T06:21:27.009Z,6.80
2019-02-08T06:26:33.359Z,6.90
2019-02-08T06:31:39.678Z,6.80
2019-02-08T06:36:45.881Z,6.80
2019-02-08T06:41:52.171Z,6.80
2019-02-08T06:46:58.445Z,6.90
2019-02-08T06:52:05.673Z,6.90
2019-02-08T06:57:30.866Z,6.90
2019-02-08T07:02:54.706Z,7.00
2019-02-08T07:08:31.958Z,7.00
2019-02-08T07:13:55.484Z,7.00
2019-02-08T07:19:12.352Z,7.00
2019-02-08T07:24:39.753Z,7.00
2019-02-08T07:30:13.872Z,7.00
2019-02-08T07:35:39.371Z,7.10
2019-02-08T07:41:10.548Z,7.10
2019-02-08T07:46:35.941Z,7.10
2019-02-08T07:51:59.733Z,7.10
2019-02-08T07:57:25.254Z,7.10
2019-02-08T08:02:49.940Z,7.20
2019-02-08T08:08:18.170Z,7.20
2019-02-08T08:13:29.117Z,7.20
2019-02-08T08:18:51.042Z,7.30
2019-02-08T08:24:22.348Z,7.30
2019-02-08T08:29:48.213Z,7.40
2019-02-08T08:35:34.442Z,7.40
2019-02-08T08:41:22.673Z,7.40
2019-02-08T08:47:04.888Z,7.50
2019-02-08T08:52:55.757Z,7.50
2019-02-08T08:59:00.838Z,7.60
2019-02-08T09:04:43.473Z,7.70
2019-02-08T09:10:19.579Z,7.80
2019-02-08T09:16:24.615Z,7.90
2019-02-08T09:21:48.366Z,7.90
2019-02-08T09:27:31.364Z,8.00
2019-02-08T09:33:26.911Z,8.00
2019-02-08T09:38:51.088Z,8.00
2019-02-08T09:44:24.308Z,8.10
2019-02-08T09:50:01.078Z,8.30
2019-02-08T09:55:59.980Z,8.40
2019-02-08T10:01:44.952Z,8.50
2019-02-08T10:07:45.778Z,8.60
2019-02-08T10:13:32.568Z,8.80
2019-02-08T10:19:14.297Z,8.80
2019-02-08T10:25:00.238Z,8.80
2019-02-08T10:30:29.677Z,8.80
2019-02-08T10:36:07.631Z,8.80
2019-02-08T10:42:08.180Z,8.90
2019-02-08T10:47:55.141Z,8.90
2019-02-08T10:53:36.675Z,9.10
2019-02-08T10:59:18.114Z,9.20
2019-02-08T11:05:10.103Z,9.30
2019-02-08T11:11:06.214Z,9.40
2019-02-08T11:16:47.610Z,9.40
2019-02-08T11:21:54.400Z,9.50
2019-02-08T11:27:02.172Z,9.70
2019-02-08T11:32:08.682Z,9.70
2019-02-08T11:37:15.259Z,9.80
2019-02-08T11:42:21.701Z,9.80
2019-02-08T11:47:27.963Z,9.80
2019-02-08T11:52:34.351Z,9.80
2019-02-08T11:57:40.683Z,9.70
2019-02-08T12:02:46.916Z,9.70
2019-02-08T12:07:53.291Z,9.70
2019-02-08T12:12:59.566Z,9.80
2019-02-08T12:18:06.257Z,9.80
2019-02-08T12:23:12.593Z,9.80
2019-02-08T12:28:19.077Z,9.80
2019-02-08T12:33:25.336Z,9.90
2019-02-08T12:38:31.569Z,9.90
2019-02-08T12:43:37.945Z,9.90
2019-02-08T12:48:44.271Z,9.90
2019-02-08T12:53:50.598Z,9.90
2019-02-08T12:58:57.156Z,9.80
2019-02-08T13:04:03.553Z,9.80
2019-02-08T13:09:13.201Z,9.90
2019-02-08T13:14:19.580Z,9.80
2019-02-08T13:19:26.112Z,9.90
2019-02-08T13:24:32.434Z,9.90
2019-02-08T13:29:39.529Z,9.80
2019-02-08T13:34:46.884Z,9.80
2019-02-08T13:39:53.088Z,9.80
2019-02-08T13:44:59.328Z,9.80
2019-02-08T13:50:08.166Z,9.80
2019-02-08T13:55:15.468Z,9.80
2019-02-08T14:00:27.653Z,9.80
2019-02-08T14:05:34.870Z,9.70
2019-02-08T14:10:41.252Z,9.80
2019-02-08T14:15:47.572Z,9.70
2019-02-08T14:20:53.804Z,9.80
2019-02-08T14:26:00.148Z,9.80
2019-02-08T14:31:06.528Z,9.80
2019-02-08T14:36:12.785Z,9.70
2019-02-08T14:41:20.278Z,9.80
2019-02-08T14:46:27.009Z,9.80
2019-02-08T14:51:33.489Z,9.70
2019-02-08T14:56:39.925Z,9.70
2019-02-08T15:01:46.178Z,9.70
2019-02-08T15:06:52.477Z,9.70
2019-02-08T15:11:58.762Z,9.70
2019-02-08T15:17:05.594Z,9.80
2019-02-08T15:22:11.943Z,9.80
2019-02-08T15:27:24.193Z,9.80
2019-02-08T15:32:26.510Z,9.80
2019-02-08T15:37:32.823Z,9.80
2019-02-08T15:42:39.196Z,9.90
2019-02-08T15:47:45.613Z,9.80
2019-02-08T15:52:51.945Z,9.80
2019-02-08T15:57:58.279Z,9.80
2019-02-08T16:03:07.858Z,9.80
2019-02-08T16:08:14.084Z,9.70
2019-02-08T16:13:20.431Z,9.70
2019-02-08T16:18:26.846Z,9.80
2019-02-08T16:23:33.295Z,9.70
2019-02-08T16:28:39.614Z,9.80
2019-02-08T16:33:45.934Z,9.70
2019-02-08T16:38:52.321Z,9.70
2019-02-08T16:43:58.612Z,9.70
2019-02-08T16:49:05.701Z,9.70
2019-02-08T16:54:11.937Z,9.70
2019-02-08T16:59:18.369Z,9.70
2019-02-08T17:04:24.687Z,9.70
2019-02-08T17:09:31.405Z,9.70
2019-02-08T17:14:37.787Z,9.70
2019-02-08T17:19:44.119Z,9.80
2019-02-08T17:24:50.555Z,9.80
2019-02-08T17:29:56.806Z,9.80
2019-02-08T17:35:03.146Z,9.80
2019-02-08T17:40:12.590Z,9.80
2019-02-08T17:45:19.843Z,9.80
2019-02-08T17:50:26.664Z,9.80
2019-02-08T17:55:33.021Z,9.80
2019-02-08T18:00:55.379Z,9.80
2019-02-08T18:06:02.738Z,9.80
2019-02-08T18:11:08.967Z,9.80
2019-02-08T18:16:15.306Z,9.80
2019-02-08T18:21:21.550Z,9.80
2019-02-08T18:26:27.929Z,9.80
2019-02-08T18:31:34.264Z,9.80
2019-02-08T18:36:40.495Z,9.80
2019-02-08T18:41:46.924Z,9.90
2019-02-08T18:46:53.466Z,9.80
2019-02-08T18:51:59.821Z,9.90
2019-02-08T18:57:06.137Z,9.90
2019-02-08T19:02:12.395Z,9.90
2019-02-08T19:07:18.626Z,9.90
2019-02-08T19:12:25.946Z,9.90
2019-02-08T19:17:32.280Z,9.80
2019-02-08T19:22:38.544Z,9.90
2019-02-08T19:27:45.061Z,9.90
2019-02-08T19:32:51.508Z,9.80
2019-02-08T19:37:57.848Z,9.80
2019-02-08T19:43:05.113Z,9.80
2019-02-08T19:48:11.796Z,9.80
2019-02-08T19:53:18.035Z,9.80
2019-02-08T19:58:24.408Z,9.80
2019-02-08T20:03:30.697Z,9.80
2019-02-08T20:08:36.890Z,9.70
2019-02-08T20:13:43.112Z,9.80
2019-02-08T20:18:49.417Z,9.70
2019-02-08T20:23:55.696Z,9.70
2019-02-08T20:29:01.955Z,9.70
2019-02-08T20:34:08.351Z,9.80
2019-02-08T20:39:14.926Z,9.70
2019-02-08T20:44:21.335Z,9.80
2019-02-08T20:49:27.659Z,9.70
2019-02-08T20:54:34.020Z,9.80
2019-02-08T20:59:40.689Z,9.80
2019-02-08T21:04:47.020Z,9.80
2019-02-08T21:09:53.278Z,9.70
2019-02-08T21:14:59.601Z,9.60
2019-02-08T21:20:07.001Z,9.60
2019-02-08T21:25:15.348Z,9.60
2019-02-08T21:30:22.616Z,9.70
2019-02-08T21:35:29.051Z,9.50
2019-02-08T21:40:35.525Z,9.20
2019-02-08T21:45:43.477Z,9.10
2019-02-08T21:50:49.691Z,9.20
2019-02-08T21:55:56.051Z,9.10
2019-02-08T22:01:02.640Z,9.20
2019-02-08T22:06:10.989Z,9.20
2019-02-08T22:11:17.333Z,9.20
2019-02-08T22:16:23.608Z,9.00
2019-02-08T22:21:29.891Z,8.80
2019-02-08T22:26:36.237Z,8.70
2019-02-08T22:31:42.467Z,8.60
2019-02-08T22:36:48.757Z,8.50
2019-02-08T22:41:55.438Z,8.50
2019-02-08T22:47:01.781Z,8.40
2019-02-08T22:52:08.008Z,8.40
2019-02-08T22:57:14.336Z,8.40
2019-02-08T23:02:21.342Z,8.50
2019-02-08T23:07:27.689Z,8.40
2019-02-08T23:12:33.963Z,8.40
2019-02-08T23:17:40.275Z,8.20
2019-02-08T23:22:46.506Z,8.20
2019-02-08T23:27:52.906Z,8.20
2019-02-08T23:32:59.144Z,8.20
2019-02-08T23:38:06.444Z,8.20
2019-02-08T23:43:12.710Z,8.20
2019-02-08T23:48:18.991Z,8.20
2019-02-08T23:53:25.247Z,8.30
2019-02-08T23:58:31.462Z,8.20
